Flight Track Log - Related Links

Times and Time Zones

All times are in EDT time to prevent confusion due to time zone crossing. See the N487VC flight status page for this flight to view local times or setup timezone preferences in your user account.

Time Position Orientation Groundspeed Altitude Reporting Facility
EDT Latitude Longitude Course Direction KTS MPH feet Rate Location/Type
Thu 07:14:00 PM 36.2481 -75.8611 341° North  Level FlightAware Approximate
Thu 07:16:48 PM 35.9639 -75.7614 341° North 266 306 3,700  Level Washington Center
Thu 07:17:28 PM 36.0014 -75.7847 333° Northwest 197 227 5,200 2,000 Climbing Washington Center
Thu 07:17:48 PM 36.0161 -75.7847 360° North 226 260 5,700 1,889 Climbing Washington Center
Thu 07:18:22 PM 36.0472 -75.8078 329° Northwest 201 231 6,900 1,700 Climbing Washington Center
Thu 07:18:48 PM 36.0681 -75.8131 348° North 204 235 7,400 1,522 Climbing Washington Center
Thu 07:19:29 PM 36.1056 -75.8361 334° Northwest 213 245 8,600 1,500 Climbing Washington Center
Thu 07:19:48 PM 36.1244 -75.8364 359° North 204 235 8,900 1,700 Climbing Washington Center
Thu 07:20:29 PM 36.1683 -75.8647 332° Northwest 222 255 10,300 1,600 Climbing Washington Center
Thu 07:20:48 PM 36.1808 -75.8647 360° North 210 242 10,500 1,527 Climbing Washington Center
Thu 07:21:24 PM 36.2183 -75.8881 333° Northwest 216 249 11,700 1,600 Climbing Washington Center
Thu 07:21:48 PM 36.2369 -75.8908 353° North 215 247 12,100 1,475 Climbing Washington Center
Thu 07:22:25 PM 36.2744 -75.9167 331° Northwest 221 254 13,200 1,500 Climbing Washington Center
Thu 07:22:48 PM 36.2953 -75.9192 354° North 215 247 13,600 1,500 Climbing Washington Center
Thu 07:23:25 PM 36.3350 -75.9425 335° Northwest 228 262 14,700 1,500 Climbing Washington Center
Thu 07:23:48 PM 36.3536 -75.9453 353° North 215 247 15,100 1,375 Climbing Washington Center
Thu 07:24:13 PM 36.3828 -75.9661 330° Northwest 225 259 15,800 900 Climbing Washington Center
Thu 07:24:48 PM 36.4142 -75.9739 349° North 215 247 16,000 218 Climbing Washington Center
Thu 07:25:08 PM 36.4411 -75.9922 331° Northwest 254 292 16,000  Level Washington Center
Thu 07:25:48 PM 36.4828 -76.0053 346° North 233 268 16,000  Level Washington Center
Thu 07:26:08 PM 36.5078 -76.0236 329° Northwest 268 308 16,000  Level Washington Center
Thu 07:26:48 PM 36.5517 -76.0392 344° North 248 285 16,000  Level Washington Center
Thu 07:27:03 PM 36.5744 -76.0522 335° Northwest 271 312 16,000  Level Washington Center
Thu 07:28:03 PM 36.6453 -76.0889 337° Northwest 271 312 16,000  Level Washington Center
Thu 07:29:04 PM 36.7161 -76.1206 340° North 274 315 16,000  Level Washington Center
Thu 07:30:11 PM 36.7972 -76.1600 339° North 273 314 16,000  Level Washington Center
Thu 07:31:17 PM 36.8742 -76.1994 338° Northwest 279 321 16,000  Level Washington Center
Thu 07:32:12 PM 36.9453 -76.1844 10° North 308 354 16,000  Level Washington Center
Thu 07:33:35 PM 37.0519 -76.1358 20° North 303 349 16,000  Level Washington Center
Thu 07:34:35 PM 37.1250 -76.1025 20° North 295 339 16,000  Level Washington Center
Thu 07:35:36 PM 37.2003 -76.0664 21° North 289 333 16,000  Level Washington Center
Thu 07:36:36 PM 37.2756 -76.0331 19° North 289 333 16,000  Level Washington Center
Thu 07:37:36 PM 37.3508 -76.0019 18° North 289 333 16,000  Level Washington Center
Thu 07:38:35 PM 37.4217 -75.9500 30° Northeast 289 333 16,000  Level Washington Center
Thu 07:39:36 PM 37.4886 -75.8956 33° Northeast 289 333 16,000  Level Washington Center
Thu 07:40:36 PM 37.5597 -75.8458 29° Northeast 289 333 16,000  Level Washington Center
Thu 07:41:36 PM 37.6286 -75.7936 31° Northeast 289 333 16,000  Level Washington Center
Thu 07:42:36 PM 37.6956 -75.7439 30° Northeast 289 333 16,000  Level Washington Center
Thu 07:43:36 PM 37.7664 -75.6917 30° Northeast 289 333 16,000  Level Washington Center
Thu 07:44:36 PM 37.8353 -75.6392 31° Northeast 289 333 16,000  Level Washington Center
Thu 07:45:36 PM 37.9042 -75.5867 31° Northeast 289 333 16,000  Level Washington Center
Thu 07:46:35 PM 37.9750 -75.5339 30° Northeast 289 333 16,000  Level Washington Center
Thu 07:47:36 PM 38.0458 -75.4783 32° Northeast 289 333 16,000  Level Washington Center
Thu 07:48:36 PM 38.1189 -75.4333 26° Northeast 289 333 16,000  Level Washington Center
Thu 07:49:36 PM 38.1939 -75.3883 25° Northeast 289 333 16,000  Level Washington Center
Thu 07:50:35 PM 38.2708 -75.3431 25° Northeast 289 333 16,000 50 Level Washington Center
Thu 07:51:36 PM 38.3333 -75.2872 35° Northeast 294 338 16,100 496 Climbing Washington Center
Thu 07:52:36 PM 38.4042 -75.2472 24° Northeast 287 330 17,000 454 Climbing Washington Center
Thu 07:53:35 PM 38.4686 -75.1858 37° Northeast 282 325 17,000  Level Washington Center
Thu 07:54:36 PM 38.5328 -75.1219 38° Northeast 287 330 17,000  Level Washington Center
Thu 07:55:36 PM 38.5994 -75.0578 37° Northeast 292 336 17,000  Level Washington Center
Thu 07:56:36 PM 38.6658 -74.9933 37° Northeast 292 336 17,000  Level Washington Center
Thu 07:57:36 PM 38.7322 -74.9264 38° Northeast 297 342 17,000  Level Washington Center
Thu 07:58:36 PM 38.8006 -74.8617 36° Northeast 297 342 17,000  Level Washington Center
Thu 07:59:36 PM 38.8689 -74.7972 36° Northeast 297 342 17,000  Level Washington Center
Thu 08:00:36 PM 38.9331 -74.7297 39° Northeast 297 342 17,000  Level Washington Center
Thu 08:01:36 PM 39.0014 -74.6647 36° Northeast 297 342 17,000  Level Washington Center
Thu 08:02:36 PM 39.0675 -74.5997 37° Northeast 297 342 17,000  Level Washington Center
Thu 08:03:36 PM 39.1356 -74.5292 39° Northeast 297 342 17,000  Level Washington Center
Thu 08:04:24 PM 39.1878 -74.4833 34° Northeast 306 352 17,000  Level New York Center
Thu 08:05:22 PM 39.2547 -74.4144 39° Northeast 306 352 17,000 -50 Level New York Center
Thu 08:06:23 PM 39.3214 -74.3481 38° Northeast 306 352 16,900 -50 Descending New York Center
Thu 08:07:23 PM 39.3881 -74.2817 38° Northeast 306 352 16,900  Level New York Center
Thu 08:08:23 PM 39.4569 -74.2097 39° Northeast 306 352 16,900  Level New York Center
Thu 08:09:21 PM 39.5278 -74.1353 39° Northeast 306 352 16,900  Level New York Center
Thu 08:10:22 PM 39.5822 -74.0517 50° Northeast 301 346 16,900  Level New York Center
Thu 08:11:23 PM 39.6325 -73.9758 49° Northeast 296 341 16,900  Level New York Center
Thu 08:12:24 PM 39.6847 -73.8919 51° Northeast 296 341 16,900 -198 Level New York Center
Thu 08:13:24 PM 39.7456 -73.7972 50° Northeast 296 341 16,500 -800 Descending New York Center
Thu 08:14:24 PM 39.7956 -73.7158 51° Northeast 302 348 15,300 -763 Descending New York Center
Thu 08:15:22 PM 39.8500 -73.6261 52° Northeast 307 353 15,000 -153 Descending New York Center
Thu 08:16:22 PM 39.9019 -73.5444 50° Northeast 307 353 15,000  Level New York Center
Thu 08:17:23 PM 39.9619 -73.4711 43° Northeast 295 339 15,000  Level New York Center
Thu 08:18:23 PM 40.0261 -73.3950 42° Northeast 295 339 15,000  Level New York Center
Thu 08:19:23 PM 40.0944 -73.3189 40° Northeast 295 339 15,000 -656 Level New York Center
Thu 08:21:26 PM 40.2161 -73.1711 43° Northeast 298 343 13,000 -996 Descending Boston Center
Thu 08:23:48 PM 40.3667 -72.9833 44° Northeast 294 338 10,600 -1,125 Descending New York TRACON
Thu 08:24:54 PM 40.4333 -72.9000 44° Northeast 308 354 9,100 -1,400 Descending New York TRACON
Thu 08:25:48 PM 40.5000 -72.8333 37° Northeast 310 357 7,800 -1,158 Descending New York TRACON
Thu 08:26:48 PM 40.5667 -72.7500 44° Northeast 298 343 6,900 -450 Descending New York TRACON
Thu 08:27:48 PM 40.6333 -72.7500 360° North 266 306 6,900  Level New York TRACON
Thu 08:28:48 PM 40.7000 -72.8000 330° Northwest 255 293 6,900  Level New York TRACON
Thu 08:29:48 PM 40.7500 -72.8333 333° Northwest 256 295 6,900  Level New York TRACON
Thu 08:30:48 PM 40.8167 -72.8833 330° Northwest 255 293 6,900  Level New York TRACON
Thu 08:31:48 PM 40.8833 -72.9333 330° Northwest 259 298 6,900 -450 Level New York TRACON
Thu 08:32:48 PM 40.9167 -73.0000 304° West 257 296 6,000 -1,200 Descending New York TRACON
Thu 08:33:48 PM 40.9667 -73.0833 308° West 261 300 4,500 -1,050 Descending New York TRACON
Thu 08:34:48 PM 41.0000 -73.1667 298° West 247 284 3,900 -300 Descending New York TRACON
Thu 08:35:48 PM 41.0500 -73.2333 315° West 241 277 3,900  Level New York TRACON
Thu 08:36:48 PM 41.0833 -73.3000 304° West 237 273 3,900  Level New York TRACON
Thu 08:37:48 PM 41.1167 -73.3833 298° West 240 276 3,900 50 Level New York TRACON
Thu 08:38:48 PM 41.1333 -73.4500 288° West 233 268 4,000 -150 Climbing New York TRACON
Thu 08:39:48 PM 41.1667 -73.5333 298° West 233 268 3,600 -476 Descending New York TRACON
Thu 08:40:54 PM 41.1833 -73.6333 283° West 249 287 3,000 -400 Descending New York TRACON
Thu 08:41:48 PM 41.2167 -73.7000 304° West 241 277 2,800 -222 Descending New York TRACON

Login

Don't have an account? Register now (free) for customized features, flight alerts, and more!